Terminal Aerodrome Forecast
Issued by NWS

Home | Current Version | Previous Version | Text Only | Print | Product List | Glossary On
Versions: 1 2 3 4 5 6 7 8 9 10 11 12 13 14 15 16 17 18 19 20 21 22 23 24 25 26 27 28 29 30 31
000
FTUS43 KLSX 301100
TAFUIN
TAF
KUIN 301128Z 3012/3112 20007KT P6SM SCT080 BKN250
     FM301500 24009KT P6SM SCT030 BKN250
     FM302300 VRB04KT P6SM SCT050 BKN250
     FM310500 18005KT P6SM SCT015
      TEMPO 3109/3112 3SM BR=

USA.gov is the U.S. government's official web portal to all federal, state and local government web resources and services.